Time;durP1;ratioP1;P1;durP2;ratioP2;P2;SDS_P1;SDS_P2;PMS_P1;PMS_P2;Temp;Humidity;BMP_temperature;BMP_pressure;BME280_temperature;BME280_humidity;BME280_pressure;Samples;Min_cycle;Max_cycle;Signal;HPM_P1;HPM_P2
2022/01/03 00:01:48;;;;;;;13.18;8.40;;;;;;;1.31;73.10;100929.31;1786261;80;25731;-60
2022/01/03 00:04:16;;;;;;;17.90;8.78;;;;;;;1.26;73.13;100922.91;1784104;78;25720;-61
2022/01/03 00:06:44;;;;;;;17.40;10.10;;;;;;;1.18;72.98;100927.27;1770613;80;25818;-61
2022/01/03 00:09:13;;;;;;;17.12;9.20;;;;;;;1.12;73.08;100910.78;1772708;80;26016;-61
2022/01/03 00:11:40;;;;;;;16.05;9.43;;;;;;;1.08;73.18;100912.23;1771526;80;27486;-61
2022/01/03 00:14:07;;;;;;;16.48;9.65;;;;;;;1.06;73.22;100914.58;1771862;79;25441;-62
2022/01/03 00:16:34;;;;;;;16.48;9.33;;;;;;;1.03;73.04;100904.14;1775458;80;25620;-61
2022/01/03 00:19:01;;;;;;;14.23;8.80;;;;;;;1.00;72.90;100879.95;1775214;80;25790;-60
2022/01/03 00:21:47;;;;;;;17.42;8.95;;;;;;;1.00;72.99;100870.67;1777353;79;25817;-61
2022/01/03 00:24:19;;;;;;;12.50;8.28;;;;;;;1.00;73.24;100872.00;1761883;81;27511;-61
2022/01/03 00:26:49;;;;;;;15.15;8.30;;;;;;;1.01;73.55;100876.38;1761018;81;25836;-61
2022/01/03 00:29:23;;;;;;;15.55;9.18;;;;;;;1.03;73.63;100872.34;1761999;81;25544;-61
2022/01/03 00:31:51;;;;;;;12.15;8.33;;;;;;;1.08;73.77;100863.22;1769306;79;25792;-61
2022/01/03 00:34:18;;;;;;;12.07;7.83;;;;;;;1.15;73.95;100853.67;1761802;81;25842;-62
2022/01/03 00:36:46;;;;;;;10.13;7.65;;;;;;;1.17;73.73;100863.71;1765615;80;27496;-61
2022/01/03 00:39:18;;;;;;;16.07;8.38;;;;;;;1.22;74.02;100849.31;1748025;80;25797;-61
2022/01/03 00:41:48;;;;;;;16.50;7.42;;;;;;;1.26;73.96;100854.00;1765952;80;25806;-61
2022/01/03 00:44:15;;;;;;;13.58;8.85;;;;;;;1.23;73.53;100849.71;1761120;81;25857;-61
2022/01/03 00:46:45;;;;;;;12.65;8.03;;;;;;;1.23;73.69;100848.38;1782839;79;25737;-61
2022/01/03 00:49:13;;;;;;;14.43;9.28;;;;;;;1.23;73.70;100845.73;1799740;79;27375;-61
2022/01/03 00:51:39;;;;;;;13.80;8.40;;;;;;;1.24;73.66;100839.98;1792089;79;25823;-61
2022/01/03 00:54:06;;;;;;;13.85;8.80;;;;;;;1.27;73.74;100845.59;1760624;81;25905;-61
2022/01/03 00:56:47;;;;;;;15.65;8.23;;;;;;;1.29;73.52;100835.30;1760472;81;25894;-61
2022/01/03 00:59:25;;;;;;;18.45;9.53;;;;;;;1.29;73.08;100827.84;1793215;79;25714;-61
2022/01/03 01:01:55;;;;;;;17.60;8.70;;;;;;;1.22;73.21;100804.27;1772916;79;27453;-61
2022/01/03 01:04:23;;;;;;;14.87;8.60;;;;;;;1.20;73.22;100794.23;1767750;79;25850;-61
2022/01/03 01:06:57;;;;;;;14.98;8.90;;;;;;;1.20;73.23;100787.60;1783560;80;25727;-61
2022/01/03 01:09:27;;;;;;;16.12;9.68;;;;;;;1.15;73.22;100773.70;1785648;79;27830;-61
2022/01/03 01:12:00;;;;;;;16.80;8.40;;;;;;;1.13;73.33;100747.74;1753533;81;25954;-61
2022/01/03 01:14:31;;;;;;;15.32;8.90;;;;;;;1.12;73.57;100731.45;1764163;79;27492;-60
2022/01/03 01:16:58;;;;;;;14.33;9.33;;;;;;;1.17;73.80;100737.39;1802116;79;25830;-61
2022/01/03 01:19:27;;;;;;;14.95;8.75;;;;;;;1.16;74.13;100711.83;1803432;79;25833;-61
2022/01/03 01:21:55;;;;;;;13.75;8.48;;;;;;;1.18;74.16;100717.04;1801356;79;25811;-61
2022/01/03 01:24:24;;;;;;;14.30;9.40;;;;;;;1.22;74.42;100724.76;1803432;79;26139;-61
2022/01/03 01:29:39;;;;;;;20.35;9.58;;;;;;;1.24;74.58;100687.60;1798484;79;25795;-60
2022/01/03 01:32:11;;;;;;;14.47;9.20;;;;;;;1.28;74.65;100718.78;1803094;79;25733;-61
2022/01/03 01:34:41;;;;;;;14.00;8.50;;;;;;;1.27;74.89;100751.03;1787263;79;26429;-60
2022/01/03 01:37:09;;;;;;;16.62;9.03;;;;;;;1.21;74.98;100738.09;1802934;79;25961;-61
2022/01/03 01:39:40;;;;;;;13.80;8.63;;;;;;;1.16;74.95;100717.12;1801662;79;27495;-61
2022/01/03 01:42:07;;;;;;;15.13;9.18;;;;;;;1.18;74.92;100707.31;1795118;79;25722;-61
2022/01/03 01:44:38;;;;;;;16.90;8.60;;;;;;;1.21;75.13;100702.32;1770448;79;25714;-61
2022/01/03 01:47:07;;;;;;;13.03;8.63;;;;;;;1.24;75.28;100699.05;1774444;79;25758;-61
2022/01/03 01:49:45;;;;;;;15.43;10.00;;;;;;;1.32;75.43;100696.47;1803079;79;25841;-61
2022/01/03 01:52:20;;;;;;;16.48;9.33;;;;;;;1.37;75.42;100702.41;1791685;79;27537;-61
2022/01/03 01:54:58;;;;;;;14.28;8.73;;;;;;;1.39;75.26;100694.76;1800510;79;25975;-61
2022/01/03 01:57:56;;;;;;;16.67;8.60;;;;;;;1.39;75.08;100704.03;1802797;79;25815;-61
2022/01/03 02:00:26;;;;;;;12.95;8.75;;;;;;;1.39;74.98;100708.50;1802541;79;26490;-60
2022/01/03 02:03:28;;;;;;;13.78;8.78;;;;;;;1.35;74.82;100724.99;1790913;79;25672;-61
2022/01/03 02:06:27;;;;;;;19.48;8.80;;;;;;;1.33;74.70;100729.99;1793020;79;27495;-61
2022/01/03 02:09:10;;;;;;;16.10;8.68;;;;;;;1.34;74.87;100715.36;1800898;79;25785;-61
2022/01/03 02:11:56;;;;;;;15.05;8.58;;;;;;;1.36;74.98;100709.48;1786449;79;25614;-61
2022/01/03 02:14:35;;;;;;;14.03;8.60;;;;;;;1.39;75.24;100700.06;1770379;81;25775;-60
2022/01/03 02:17:00;;;;;;;14.18;9.45;;;;;;;1.43;75.42;100697.27;1769853;81;25744;-61
2022/01/03 02:19:28;;;;;;;14.07;8.05;;;;;;;1.50;75.52;100699.50;1770558;81;27594;-61
2022/01/03 02:21:58;;;;;;;14.05;8.78;;;;;;;1.52;75.56;100698.95;1797869;79;26483;-60
2022/01/03 02:24:26;;;;;;;15.78;8.28;;;;;;;1.52;75.36;100688.34;1802161;79;25658;-61
2022/01/03 02:26:53;;;;;;;15.30;8.23;;;;;;;1.42;75.12;100672.53;1783982;79;25790;-61
2022/01/03 02:29:21;;;;;;;16.20;8.33;;;;;;;1.43;75.47;100663.64;1770478;79;25917;-61
2022/01/03 02:31:49;;;;;;;15.35;9.15;;;;;;;1.46;75.58;100674.55;1770656;81;27471;-61
2022/01/03 02:34:16;;;;;;;15.58;8.93;;;;;;;1.44;75.55;100683.05;1770263;79;25698;-61
2022/01/03 02:36:47;;;;;;;12.73;8.55;;;;;;;1.43;75.67;100677.37;1772887;80;25612;-60
2022/01/03 02:39:15;;;;;;;17.67;9.45;;;;;;;1.41;75.29;100682.74;1780619;79;25798;-61
2022/01/03 02:41:42;;;;;;;13.98;9.13;;;;;;;1.36;75.11;100694.06;1770281;79;25715;-61
2022/01/03 02:44:09;;;;;;;13.93;8.48;;;;;;;1.27;74.80;100697.19;1770378;81;27467;-61
2022/01/03 02:46:36;;;;;;;14.87;9.63;;;;;;;1.15;74.61;100706.14;1770992;79;25766;-61
2022/01/03 02:49:05;;;;;;;13.38;8.03;;;;;;;1.05;74.43;100718.13;1776933;79;25689;-61
2022/01/03 02:51:33;;;;;;;13.20;7.75;;;;;;;0.97;74.68;100718.52;1797889;79;25792;-61
2022/01/03 02:54:00;;;;;;;16.85;9.73;;;;;;;0.89;74.65;100717.56;1769149;81;25818;-61
2022/01/03 02:56:33;;;;;;;17.12;9.40;;;;;;;0.88;74.89;100725.59;1769065;81;27468;-60
2022/01/03 02:59:11;;;;;;;13.70;8.60;;;;;;;0.86;75.17;100724.80;1769357;79;25795;-61
2022/01/03 03:01:47;;;;;;;15.00;9.10;;;;;;;0.83;75.09;100718.33;1791209;79;25745;-61
2022/01/03 03:04:15;;;;;;;13.65;8.43;;;;;;;0.85;75.31;100704.55;1802849;79;25784;-61
2022/01/03 03:06:44;;;;;;;13.15;8.50;;;;;;;0.88;75.42;100693.81;1778752;79;25503;-61
2022/01/03 03:09:13;;;;;;;17.15;9.48;;;;;;;0.92;75.72;100690.06;1798741;79;27468;-61
2022/01/03 03:11:40;;;;;;;12.37;8.38;;;;;;;0.97;75.73;100688.52;1785723;79;25735;-61
2022/01/03 03:14:08;;;;;;;17.50;9.35;;;;;;;1.01;75.78;100698.03;1761721;81;25762;-61
2022/01/03 03:16:35;;;;;;;16.20;7.95;;;;;;;1.03;75.67;100694.84;1779877;79;25772;-61
2022/01/03 03:19:04;;;;;;;17.80;9.23;;;;;;;1.00;75.22;100694.98;1799035;79;25733;-61
2022/01/03 03:21:32;;;;;;;14.70;8.88;;;;;;;0.87;74.95;100683.67;1798596;79;27496;-61
2022/01/03 03:23:59;;;;;;;22.25;10.78;;;;;;;0.81;74.89;100689.76;1798965;79;25696;-61
2022/01/03 03:26:26;;;;;;;18.98;9.23;;;;;;;0.82;75.32;100704.23;1799312;79;25709;-61
2022/01/03 03:28:55;;;;;;;15.93;9.78;;;;;;;0.81;75.12;100705.17;1799539;79;25768;-61
2022/01/03 03:31:23;;;;;;;13.93;9.08;;;;;;;0.74;74.98;100685.22;1799361;79;25770;-61
2022/01/03 03:33:50;;;;;;;14.10;9.80;;;;;;;0.70;75.08;100674.37;1767080;79;26872;-60
2022/01/03 03:36:17;;;;;;;15.95;8.80;;;;;;;0.71;75.07;100668.15;1788765;79;25693;-61
2022/01/03 03:38:44;;;;;;;19.40;9.45;;;;;;;0.71;74.93;100669.03;1761140;81;25722;-61
2022/01/03 03:41:16;;;;;;;14.50;8.98;;;;;;;0.71;74.90;100671.67;1760541;81;25835;-61
2022/01/03 03:43:48;;;;;;;12.88;9.30;;;;;;;0.73;75.09;100672.91;1761345;79;25738;-61
2022/01/03 03:46:18;;;;;;;13.60;8.78;;;;;;;0.76;75.17;100670.97;1762007;81;28130;-61
2022/01/03 03:48:47;;;;;;;19.42;9.65;;;;;;;0.79;75.14;100665.98;1761736;81;25827;-61
2022/01/03 03:51:16;;;;;;;20.82;8.80;;;;;;;0.80;74.88;100654.94;1766999;79;25817;-61
2022/01/03 03:53:43;;;;;;;14.85;8.98;;;;;;;0.80;74.94;100641.70;1761584;79;26734;-61
2022/01/03 03:56:11;;;;;;;17.67;10.93;;;;;;;0.85;75.25;100633.88;1761939;81;25929;-61
2022/01/03 03:58:40;;;;;;;19.23;9.73;;;;;;;0.89;75.26;100636.78;1769324;79;27483;-61
2022/01/03 04:01:07;;;;;;;16.60;9.80;;;;;;;0.96;75.40;100633.36;1799207;79;25787;-61
2022/01/03 04:03:36;;;;;;;12.00;8.78;;;;;;;1.02;75.55;100628.23;1799497;79;25697;-61
2022/01/03 04:06:04;;;;;;;13.90;9.15;;;;;;;1.03;75.58;100629.46;1800965;79;26460;-61
2022/01/03 04:08:34;;;;;;;13.75;9.25;;;;;;;1.05;75.64;100630.25;1802129;79;25694;-61
2022/01/03 04:11:01;;;;;;;18.45;9.95;;;;;;;1.07;75.52;100624.86;1797350;79;28147;-61
2022/01/03 04:13:28;;;;;;;17.05;10.00;;;;;;;1.06;75.19;100624.47;1775730;79;25827;-61
2022/01/03 04:15:58;;;;;;;13.20;9.48;;;;;;;0.99;74.54;100615.97;1794681;79;25799;-61
2022/01/03 04:18:25;;;;;;;16.50;10.88;;;;;;;0.96;74.81;100609.52;1767410;81;25789;-61
2022/01/03 04:20:55;;;;;;;14.03;9.15;;;;;;;0.93;74.72;100593.33;1742691;80;25741;-61
2022/01/03 04:23:23;;;;;;;17.67;9.75;;;;;;;0.89;74.57;100590.43;1771037;81;28418;-61
2022/01/03 04:25:51;;;;;;;18.00;8.58;;;;;;;0.83;74.44;100576.64;1770870;81;25767;-61
2022/01/03 04:28:22;;;;;;;15.90;9.70;;;;;;;0.76;74.41;100576.12;1779375;79;25760;-61
2022/01/03 04:30:52;;;;;;;16.23;9.23;;;;;;;0.67;74.19;100594.64;1801392;78;25786;-61
2022/01/03 04:33:23;;;;;;;19.45;11.73;;;;;;;0.61;74.45;100587.85;1802733;79;25785;-61
2022/01/03 04:35:52;;;;;;;16.57;10.63;;;;;;;0.56;74.52;100589.89;1802634;79;28243;-60
2022/01/03 04:38:19;;;;;;;14.68;10.20;;;;;;;0.51;74.64;100586.59;1783681;79;25826;-60
2022/01/03 04:40:48;;;;;;;15.55;9.83;;;;;;;0.42;74.43;100583.08;1785496;79;25491;-61
2022/01/03 04:43:15;;;;;;;15.68;9.73;;;;;;;0.41;74.69;100582.69;1775621;79;25795;-61
2022/01/03 04:45:42;;;;;;;15.30;8.80;;;;;;;0.33;75.02;100581.75;1767311;81;25944;-61
2022/01/03 04:48:11;;;;;;;14.90;8.73;;;;;;;0.23;74.66;100580.00;1770676;79;27460;-61
2022/01/03 04:50:39;;;;;;;18.42;10.20;;;;;;;0.20;74.93;100573.56;1794374;79;25893;-61
2022/01/03 04:53:08;;;;;;;15.72;9.80;;;;;;;0.20;75.18;100582.82;1778283;80;25780;-61
2022/01/03 04:55:36;;;;;;;19.20;10.10;;;;;;;0.20;75.29;100584.59;1781133;80;25788;-61
2022/01/03 04:58:04;;;;;;;20.82;10.10;;;;;;;0.19;75.25;100583.75;1781308;80;25872;-61
2022/01/03 05:00:31;;;;;;;21.15;10.95;;;;;;;0.22;75.04;100591.55;1778522;79;28324;-61
2022/01/03 05:02:58;;;;;;;19.00;9.98;;;;;;;0.23;74.99;100590.59;1767740;81;25470;-61
2022/01/03 05:05:28;;;;;;;15.53;9.40;;;;;;;0.22;75.03;100580.97;1775512;79;25691;-61
2022/01/03 05:07:57;;;;;;;15.68;10.38;;;;;;;0.22;74.94;100571.70;1777776;79;25790;-61
2022/01/03 05:10:27;;;;;;;18.50;12.55;;;;;;;0.21;74.95;100563.83;1761851;81;25906;-60
2022/01/03 05:12:54;;;;;;;18.17;12.10;;;;;;;0.18;75.08;100554.25;1764416;79;27558;-60
2022/01/03 05:15:22;;;;;;;17.57;11.43;;;;;;;0.21;75.19;100552.80;1761855;79;25803;-60
2022/01/03 05:17:49;;;;;;;19.55;10.90;;;;;;;0.25;75.48;100541.11;1763671;79;25843;-61
2022/01/03 05:20:17;;;;;;;15.30;9.43;;;;;;;0.28;75.35;100544.94;1799383;79;25787;-60
2022/01/03 05:22:45;;;;;;;30.70;13.78;;;;;;;0.30;75.45;100547.50;1795737;79;25821;-60
2022/01/03 05:25:13;;;;;;;33.67;16.73;;;;;;;0.30;75.24;100540.44;1799520;79;28122;-61
2022/01/03 05:27:42;;;;;;;21.73;12.78;;;;;;;0.31;75.31;100539.47;1799445;79;25784;-60
2022/01/03 05:30:12;;;;;;;20.75;12.07;;;;;;;0.30;75.09;100532.49;1798829;79;25792;-60
2022/01/03 05:32:38;;;;;;;16.97;10.82;;;;;;;0.31;75.16;100531.53;1748456;79;25787;-61
2022/01/03 05:35:07;;;;;;;15.40;9.65;;;;;;;0.29;75.09;100530.78;1799115;79;25815;-60
2022/01/03 05:37:36;;;;;;;18.85;10.48;;;;;;;0.24;74.75;100534.09;1778275;79;27433;-60
2022/01/03 05:40:07;;;;;;;15.43;10.03;;;;;;;0.21;74.76;100522.81;1760883;81;25734;-60
2022/01/03 05:42:34;;;;;;;17.45;9.98;;;;;;;0.22;74.79;100521.89;1729927;79;25742;-60
2022/01/03 05:45:04;;;;;;;15.05;10.20;;;;;;;0.21;74.77;100513.11;1761930;80;25841;-60
2022/01/03 05:47:31;;;;;;;14.25;10.03;;;;;;;0.22;74.76;100513.50;1761351;81;25702;-60
2022/01/03 05:49:59;;;;;;;19.10;11.00;;;;;;;0.24;74.89;100514.25;1761045;81;27447;-60
2022/01/03 05:52:26;;;;;;;20.20;11.57;;;;;;;0.24;74.99;100516.91;1761695;79;25712;-60
2022/01/03 05:54:56;;;;;;;23.12;11.88;;;;;;;0.26;74.99;100508.91;1761444;80;25788;-60
2022/01/03 05:57:25;;;;;;;20.30;11.35;;;;;;;0.28;75.03;100497.76;1761060;81;25841;-60
2022/01/03 05:59:52;;;;;;;17.62;11.35;;;;;;;0.35;75.30;100490.38;1760578;81;25754;-60
2022/01/03 06:02:19;;;;;;;16.25;10.85;;;;;;;0.43;75.54;100504.08;1761195;81;28114;-61
2022/01/03 06:04:56;;;;;;;22.17;11.57;;;;;;;0.50;75.61;100492.72;1775656;80;25827;-60
2022/01/03 06:07:21;;;;;;;19.37;12.65;;;;;;;0.58;75.79;100485.23;1789564;79;35316;-60
2022/01/03 06:09:50;;;;;;;20.20;13.30;;;;;;;0.68;75.89;100485.60;1766826;81;26681;-60
2022/01/03 06:12:20;;;;;;;20.45;11.83;;;;;;;0.74;75.89;100488.80;1770904;80;25701;-60
2022/01/03 06:14:55;;;;;;;22.62;12.28;;;;;;;0.80;75.78;100492.08;1768498;80;27405;-61
2022/01/03 06:17:24;;;;;;;20.80;11.28;;;;;;;0.81;75.46;100502.58;1766581;80;25501;-61
2022/01/03 06:19:53;;;;;;;30.08;11.88;;;;;;;0.83;75.07;100512.63;1768184;79;25750;-60
2022/01/03 06:22:23;;;;;;;15.65;9.98;;;;;;;0.78;74.63;100513.32;1768280;80;26487;-60
2022/01/03 06:24:53;;;;;;;17.15;10.85;;;;;;;0.77;74.50;100495.27;1767075;80;25893;-60
2022/01/03 06:27:20;;;;;;;24.80;9.55;;;;;;;0.72;74.37;100493.31;1765658;80;27498;-60
2022/01/03 06:29:48;;;;;;;19.50;10.38;;;;;;;0.68;74.21;100485.16;1767246;81;26469;-60
2022/01/03 06:32:17;;;;;;;15.48;10.25;;;;;;;0.64;74.30;100488.04;1777655;80;25789;-60
2022/01/03 06:34:44;;;;;;;19.27;10.72;;;;;;;0.64;74.88;100506.09;1784780;79;26424;-61
2022/01/03 06:37:11;;;;;;;17.80;11.65;;;;;;;0.70;75.08;100506.25;1783799;79;26086;-61
2022/01/03 06:39:45;;;;;;;20.48;11.90;;;;;;;0.75;75.20;100501.58;1769935;79;29625;-61
2022/01/03 06:42:16;;;;;;;27.65;12.78;;;;;;;0.86;75.46;100499.69;1767406;80;25712;-60
2022/01/03 06:44:46;;;;;;;19.65;12.50;;;;;;;0.92;75.47;100497.58;1784512;79;25740;-60
2022/01/03 06:47:14;;;;;;;17.30;11.38;;;;;;;1.04;75.72;100492.09;1767029;81;25791;-60
2022/01/03 06:49:40;;;;;;;21.20;13.13;;;;;;;1.16;76.04;100501.17;1770186;80;25729;-60
2022/01/03 06:52:07;;;;;;;25.45;14.00;;;;;;;1.24;76.15;100514.02;1781197;79;27518;-60
2022/01/03 06:54:34;;;;;;;22.40;14.20;;;;;;;1.30;76.34;100502.24;1781155;80;25658;-61
2022/01/03 06:57:06;;;;;;;20.52;13.32;;;;;;;1.44;76.48;100508.08;1780627;80;25778;-60
2022/01/03 06:59:35;;;;;;;19.45;13.20;;;;;;;1.49;76.56;100504.25;1769816;79;26147;-61
2022/01/03 07:02:04;;;;;;;24.05;14.15;;;;;;;1.51;76.08;100503.70;1773757;80;25812;-60
2022/01/03 07:04:32;;;;;;;19.65;13.18;;;;;;;1.58;76.19;100503.34;1781287;80;28016;-61
2022/01/03 07:06:59;;;;;;;20.90;13.75;;;;;;;1.62;76.24;100496.47;1778266;80;25743;-61
2022/01/03 07:09:26;;;;;;;18.85;13.08;;;;;;;1.65;75.83;100487.51;1767807;80;25750;-60
2022/01/03 07:11:53;;;;;;;19.35;12.63;;;;;;;1.64;75.76;100494.59;1772475;80;25810;-60
2022/01/03 07:19:56;;;;;;;25.80;15.45;;;;;;;1.52;75.48;100484.69;1767848;81;25718;-61
2022/01/03 07:22:26;;;;;;;26.02;16.23;;;;;;;1.54;75.72;100484.11;1770099;80;25898;-61
2022/01/03 07:24:53;;;;;;;24.98;15.53;;;;;;;1.58;75.87;100497.59;1797260;79;25737;-60
2022/01/03 07:27:20;;;;;;;30.10;18.07;;;;;;;1.60;76.03;100477.61;1802619;79;25742;-61
2022/01/03 07:29:50;;;;;;;21.15;13.70;;;;;;;1.60;76.01;100465.23;1802718;79;28198;-61
2022/01/03 07:32:17;;;;;;;17.27;11.65;;;;;;;1.62;76.02;100461.16;1771005;79;26056;-61
2022/01/03 07:34:44;;;;;;;20.82;12.53;;;;;;;1.67;76.17;100465.72;1767077;80;25682;-62
2022/01/03 07:37:14;;;;;;;18.80;11.68;;;;;;;1.75;76.43;100465.30;1766761;81;26496;-62
2022/01/03 07:39:42;;;;;;;21.70;13.90;;;;;;;1.85;76.63;100477.09;1766568;81;25732;-62
2022/01/03 07:42:14;;;;;;;20.92;13.15;;;;;;;1.93;76.28;100470.87;1767667;80;27451;-61
2022/01/03 07:44:43;;;;;;;21.60;14.60;;;;;;;2.00;76.22;100471.39;1766611;80;27254;-61
2022/01/03 07:47:10;;;;;;;25.62;16.48;;;;;;;2.13;76.58;100476.84;1781109;79;25739;-61
2022/01/03 07:49:36;;;;;;;28.30;16.37;;;;;;;2.27;76.75;100469.39;1776094;79;25907;-61
2022/01/03 07:52:06;;;;;;;22.37;14.58;;;;;;;2.41;76.65;100464.59;1768536;81;25803;-61
2022/01/03 07:54:33;;;;;;;17.75;11.93;;;;;;;2.50;76.23;100480.83;1770376;80;27465;-61
2022/01/03 07:57:03;;;;;;;26.37;16.60;;;;;;;2.44;75.65;100458.63;1774804;80;25892;-62
2022/01/03 07:59:32;;;;;;;20.17;12.45;;;;;;;2.47;75.70;100466.39;1770520;79;25766;-61
2022/01/03 08:02:00;;;;;;;22.07;14.05;;;;;;;2.54;75.40;100480.16;1796307;79;25759;-61
2022/01/03 08:04:27;;;;;;;28.60;15.83;;;;;;;2.50;75.14;100459.58;1785013;79;25636;-61
2022/01/03 08:06:56;;;;;;;25.92;15.63;;;;;;;2.49;75.25;100461.02;1776526;80;27474;-61
2022/01/03 08:09:23;;;;;;;28.35;16.02;;;;;;;2.48;75.21;100474.74;1777883;80;27218;-61
2022/01/03 08:11:52;;;;;;;26.52;16.95;;;;;;;2.56;75.48;100476.95;1777795;80;25648;-62
2022/01/03 08:14:18;;;;;;;25.77;17.40;;;;;;;2.61;75.27;100481.50;1777620;80;25860;-61
2022/01/03 08:16:46;;;;;;;33.33;18.17;;;;;;;2.70;75.21;100473.92;1779568;79;25713;-62
2022/01/03 08:19:14;;;;;;;31.55;18.65;;;;;;;2.74;74.87;100475.46;1761372;81;26857;-61
2022/01/03 08:21:43;;;;;;;40.03;21.52;;;;;;;2.76;74.71;100474.41;1761645;80;26026;-61
2022/01/03 08:24:10;;;;;;;42.93;22.70;;;;;;;2.69;74.58;100470.42;1778313;80;25514;-61
2022/01/03 08:26:38;;;;;;;44.93;22.93;;;;;;;2.62;74.51;100458.47;1774526;79;25796;-62
2022/01/03 08:29:09;;;;;;;42.50;23.25;;;;;;;2.61;74.68;100460.74;1762916;79;25845;-62
2022/01/03 08:31:39;;;;;;;47.10;25.20;;;;;;;2.60;74.77;100445.27;1785212;79;27572;-61
2022/01/03 08:34:07;;;;;;;37.55;22.42;;;;;;;2.64;74.98;100443.30;1799432;79;26076;-61
2022/01/03 08:36:34;;;;;;;30.00;20.12;;;;;;;2.68;75.19;100441.31;1794824;79;25708;-61
2022/01/03 08:39:01;;;;;;;37.15;20.37;;;;;;;2.73;75.38;100444.53;1780782;80;26547;-62
2022/01/03 08:41:28;;;;;;;34.85;20.68;;;;;;;2.81;75.29;100440.92;1775268;80;25751;-62
2022/01/03 08:43:55;;;;;;;37.50;21.35;;;;;;;2.84;75.25;100441.20;1775443;80;27349;-61
2022/01/03 08:46:24;;;;;;;48.40;20.57;;;;;;;2.82;75.13;100443.48;1787657;79;25738;-61
2022/01/03 08:48:52;;;;;;;37.67;21.33;;;;;;;2.93;75.45;100440.18;1796171;79;25740;-61
2022/01/03 08:51:22;;;;;;;42.35;24.72;;;;;;;3.07;75.56;100438.00;1764120;79;25848;-60
2022/01/03 08:53:49;;;;;;;42.90;24.85;;;;;;;3.25;75.72;100431.14;1764223;80;25766;-61
2022/01/03 08:56:20;;;;;;;46.60;25.60;;;;;;;3.31;74.95;100424.09;1766404;80;27509;-61
2022/01/03 08:58:46;;;;;;;45.03;26.68;;;;;;;3.28;74.65;100426.48;1760592;81;25775;-61
2022/01/03 09:01:16;;;;;;;51.05;25.92;;;;;;;3.25;74.36;100423.16;1764841;79;25865;-61
2022/01/03 09:03:44;;;;;;;53.52;28.40;;;;;;;3.24;74.36;100422.78;1783021;79;26459;-61
2022/01/03 09:06:11;;;;;;;43.05;23.15;;;;;;;3.24;74.23;100424.11;1770590;80;25845;-61
2022/01/03 09:08:38;;;;;;;43.58;22.37;;;;;;;3.29;73.83;100424.20;1779926;79;27450;-61
2022/01/03 09:11:07;;;;;;;38.83;21.93;;;;;;;3.31;73.91;100416.11;1780899;80;25701;-61
2022/01/03 09:13:36;;;;;;;37.93;22.25;;;;;;;3.28;73.63;100398.56;1777542;79;25745;-61
2022/01/03 09:16:06;;;;;;;32.85;19.57;;;;;;;3.24;73.74;100401.02;1778096;79;25847;-61
2022/01/03 09:18:37;;;;;;;38.35;21.57;;;;;;;3.26;73.43;100401.78;1767267;79;25786;-61
2022/01/03 09:21:06;;;;;;;32.85;20.72;;;;;;;3.16;73.36;100401.98;1770626;79;27490;-61
2022/01/03 09:23:40;;;;;;;36.48;21.93;;;;;;;3.16;73.55;100406.47;1775258;79;26022;-60
2022/01/03 09:28:51;;;;;;;43.10;21.00;;;;;;;3.31;73.99;100397.50;1782640;79;25870;-61
2022/01/03 09:31:32;;;;;;;44.18;22.02;;;;;;;3.40;73.92;100380.95;1777978;79;26005;-61
2022/01/03 09:34:03;;;;;;;38.65;21.97;;;;;;;3.49;74.01;100390.62;1784506;79;27488;-61
2022/01/03 09:36:35;;;;;;;31.82;20.10;;;;;;;3.54;73.99;100393.84;1781541;79;26003;-61
2022/01/03 09:39:04;;;;;;;35.00;19.23;;;;;;;3.64;74.33;100385.61;1773921;79;25782;-61
2022/01/03 09:41:32;;;;;;;32.50;18.20;;;;;;;3.72;74.04;100385.12;1782040;79;25793;-61
2022/01/03 09:44:08;;;;;;;33.23;17.12;;;;;;;3.72;73.48;100375.31;1780060;79;25799;-61
2022/01/03 09:46:39;;;;;;;36.33;20.10;;;;;;;3.76;73.56;100378.16;1783667;79;28618;-61
2022/01/03 09:49:12;;;;;;;33.15;17.85;;;;;;;3.78;73.45;100374.55;1780609;79;26661;-61
2022/01/03 09:51:45;;;;;;;31.50;19.37;;;;;;;3.74;73.20;100372.08;1778974;79;26780;-61
2022/01/03 09:54:20;;;;;;;33.15;21.87;;;;;;;3.69;72.55;100376.00;1777269;79;25913;-60
2022/01/03 09:56:50;;;;;;;29.95;17.42;;;;;;;3.59;72.88;100379.75;1776439;79;25763;-61
2022/01/03 09:59:19;;;;;;;34.58;20.23;;;;;;;3.76;73.04;100366.68;1776888;80;26909;-61
2022/01/03 10:01:46;;;;;;;43.40;24.92;;;;;;;4.15;73.10;100368.92;1778199;79;25739;-61
2022/01/03 10:04:15;;;;;;;47.83;27.20;;;;;;;4.54;72.18;100369.80;1777897;79;25766;-61
2022/01/03 10:06:42;;;;;;;32.70;19.62;;;;;;;4.77;72.23;100368.64;1778228;79;25826;-60
2022/01/03 10:09:09;;;;;;;27.85;18.65;;;;;;;5.42;71.96;100359.16;1771700;79;25817;-61
2022/01/03 10:11:41;;;;;;;30.00;18.05;;;;;;;5.96;70.58;100345.78;1779742;79;27458;-61
2022/01/03 10:14:16;;;;;;;26.27;18.00;;;;;;;6.34;70.08;100347.36;1767563;79;25632;-61
2022/01/03 10:16:42;;;;;;;25.55;16.75;;;;;;;6.84;69.27;100344.81;1767820;79;25778;-61
2022/01/03 10:19:10;;;;;;;25.43;16.73;;;;;;;7.58;68.08;100337.96;1761230;79;25778;-61
2022/01/03 10:21:45;;;;;;;24.30;15.38;;;;;;;8.33;68.01;100346.00;1764180;79;25981;-61
2022/01/03 10:24:15;;;;;;;24.92;15.65;;;;;;;8.96;65.09;100345.88;1782228;79;28659;-61
2022/01/03 10:26:44;;;;;;;25.70;14.58;;;;;;;9.59;62.42;100348.77;1774696;79;25738;-61
2022/01/03 10:29:26;;;;;;;19.15;13.18;;;;;;;9.86;61.78;100344.02;1743434;79;25709;-61
2022/01/03 10:32:00;;;;;;;20.12;14.25;;;;;;;9.91;60.88;100343.59;1770335;79;25844;-62
2022/01/03 10:34:31;;;;;;;19.35;13.72;;;;;;;9.76;61.22;100339.64;1771226;79;43209;-62
2022/01/03 10:36:59;;;;;;;17.95;13.48;;;;;;;9.52;61.01;100345.78;1775106;79;27391;-62
2022/01/03 10:39:30;;;;;;;19.77;13.22;;;;;;;9.37;60.53;100333.76;1773222;79;25786;-61
2022/01/03 10:42:17;;;;;;;19.37;12.80;;;;;;;9.26;60.11;100329.38;1774477;80;25717;-61
2022/01/03 10:44:46;;;;;;;21.35;14.20;;;;;;;9.04;59.61;100339.34;1766242;80;25844;-62
2022/01/03 10:47:30;;;;;;;22.62;15.35;;;;;;;9.07;59.66;100331.50;1777039;79;27318;-61
2022/01/03 10:49:59;;;;;;;36.25;16.45;;;;;;;9.00;59.49;100341.09;1768789;79;27532;-62
2022/01/03 10:52:33;;;;;;;22.42;15.20;;;;;;;9.17;59.56;100355.70;1772200;80;25815;-62
2022/01/03 10:55:30;;;;;;;21.37;15.38;;;;;;;9.51;59.50;100345.93;1760855;79;25985;-62
2022/01/03 10:58:05;;;;;;;21.35;13.10;;;;;;;10.07;59.25;100345.70;1770671;79;26466;-61
2022/01/03 11:00:37;;;;;;;21.35;13.62;;;;;;;10.77;58.14;100341.36;1777121;79;25786;-61
2022/01/03 11:03:36;;;;;;;18.85;12.98;;;;;;;11.14;56.78;100337.43;1778226;79;27526;-61
2022/01/03 11:06:20;;;;;;;21.07;13.08;;;;;;;11.61;56.84;100333.22;1765614;79;25762;-61
2022/01/03 11:11:21;;;;;;;18.67;13.72;;;;;;;12.41;55.60;100332.37;1765404;78;25747;-62
2022/01/03 11:13:48;;;;;;;18.75;13.25;;;;;;;12.83;53.91;100323.48;1777192;78;25756;-62
2022/01/03 11:16:17;;;;;;;18.00;11.55;;;;;;;13.23;51.72;100308.07;1788498;78;28604;-61
2022/01/03 11:18:47;;;;;;;16.80;12.10;;;;;;;13.65;50.94;100307.18;1788818;78;25775;-62
2022/01/03 11:21:21;;;;;;;18.70;12.90;;;;;;;13.67;50.29;100293.48;1768594;79;25723;-62
2022/01/03 11:24:10;;;;;;;22.15;15.15;;;;;;;13.86;50.59;100299.05;1771799;80;26614;-62
2022/01/03 11:26:47;;;;;;;21.07;14.85;;;;;;;13.66;47.39;100287.25;1767735;79;25703;-62
2022/01/03 11:29:15;;;;;;;28.70;16.55;;;;;;;13.49;49.51;100290.95;1775305;79;27546;-62
2022/01/03 11:31:43;;;;;;;22.22;16.00;;;;;;;13.27;48.89;100300.83;1779313;79;25510;-62
2022/01/03 11:34:12;;;;;;;19.45;14.43;;;;;;;12.91;49.06;100309.67;1772454;79;25822;-62
2022/01/03 11:36:43;;;;;;;18.15;14.35;;;;;;;12.54;49.57;100306.31;1781848;80;25824;-62
2022/01/03 11:39:13;;;;;;;19.40;13.88;;;;;;;12.10;49.54;100307.73;1762762;80;25780;-62
2022/01/03 11:41:43;;;;;;;21.33;14.65;;;;;;;11.58;49.59;100301.19;1776138;79;27387;-63
2022/01/03 11:44:12;;;;;;;20.65;14.58;;;;;;;11.28;49.87;100306.80;1775165;79;25775;-62
2022/01/03 11:46:42;;;;;;;19.73;14.90;;;;;;;11.00;50.46;100296.58;1775201;80;25803;-62